createdAt,value
2023-04-09T00:01:28.875Z,102527.31
2023-04-09T00:03:55.333Z,102530.91
2023-04-09T00:06:21.731Z,102525.59
2023-04-09T00:08:48.142Z,102526.59
2023-04-09T00:11:14.581Z,102522.28
2023-04-09T00:13:41.159Z,102521.28
2023-04-09T00:16:08.122Z,102521.13
2023-04-09T00:18:34.677Z,102523.00
2023-04-09T00:21:01.173Z,102511.16
2023-04-09T00:23:27.614Z,102512.97
2023-04-09T00:25:53.968Z,102514.72
2023-04-09T00:28:20.599Z,102516.44
2023-04-09T00:30:46.924Z,102519.16
2023-04-09T00:33:13.355Z,102522.72
2023-04-09T00:35:39.730Z,102509.28
2023-04-09T00:38:06.142Z,102516.59
2023-04-09T00:40:32.621Z,102521.28
2023-04-09T00:42:59.004Z,102522.03
2023-04-09T00:45:25.547Z,102514.72
2023-04-09T00:47:52.280Z,102512.00
2023-04-09T00:50:18.718Z,102521.88
2023-04-09T00:52:45.410Z,102517.44
2023-04-09T00:55:12.549Z,102521.13
2023-04-09T00:57:39.026Z,102517.72
2023-04-09T01:00:07.261Z,102520.44
2023-04-09T01:02:33.934Z,102520.44
2023-04-09T01:05:00.700Z,102515.84
2023-04-09T01:07:39.461Z,102512.97
2023-04-09T01:10:26.106Z,102499.25
2023-04-09T01:13:00.467Z,102500.25
2023-04-09T01:15:29.815Z,102508.53
2023-04-09T01:18:07.634Z,102506.69
2023-04-09T01:20:42.278Z,102504.09
2023-04-09T01:23:16.893Z,102504.09
2023-04-09T01:25:43.271Z,102504.97
2023-04-09T01:28:16.838Z,102510.56
2023-04-09T01:30:46.753Z,102509.81
2023-04-09T01:33:14.512Z,102507.09
2023-04-09T01:35:45.887Z,102514.25
2023-04-09T01:38:13.741Z,102509.69
2023-04-09T01:40:40.999Z,102518.72
2023-04-09T01:43:07.891Z,102508.81
2023-04-09T01:45:34.756Z,102511.69
2023-04-09T01:48:01.600Z,102507.94
2023-04-09T01:50:28.217Z,102506.09
2023-04-09T01:52:54.646Z,102506.09
2023-04-09T01:55:21.108Z,102518.56
2023-04-09T01:57:47.454Z,102513.28
2023-04-09T02:00:14.548Z,102515.25
2023-04-09T02:02:46.250Z,102519.56
2023-04-09T02:05:15.442Z,102519.69
2023-04-09T02:07:47.322Z,102520.69
2023-04-09T02:10:13.960Z,102525.13
2023-04-09T02:12:42.826Z,102524.28
2023-04-09T02:15:09.484Z,102523.41
2023-04-09T02:17:35.872Z,102526.13
2023-04-09T02:20:02.256Z,102521.72
2023-04-09T02:22:28.600Z,102533.28
2023-04-09T02:24:55.177Z,102534.19
2023-04-09T02:27:21.695Z,102529.59
2023-04-09T02:29:48.131Z,102525.00
2023-04-09T02:32:14.513Z,102530.47
2023-04-09T02:34:40.866Z,102533.88
2023-04-09T02:37:07.421Z,102530.19
2023-04-09T02:39:33.776Z,102531.91
2023-04-09T02:42:01.001Z,102539.06
2023-04-09T02:44:27.344Z,102536.34
2023-04-09T02:46:53.736Z,102529.19
2023-04-09T02:49:20.170Z,102527.31
2023-04-09T02:51:46.593Z,102526.47
2023-04-09T02:54:12.995Z,102524.75
2023-04-09T02:56:39.370Z,102522.16
2023-04-09T02:59:05.701Z,102524.16
2023-04-09T03:01:32.172Z,102523.41
2023-04-09T03:03:58.736Z,102514.66
2023-04-09T03:06:25.196Z,102513.81
2023-04-09T03:08:51.759Z,102516.69
2023-04-09T03:11:18.250Z,102516.69
2023-04-09T03:13:44.572Z,102516.53
2023-04-09T03:16:11.007Z,102516.28
2023-04-09T03:18:37.386Z,102518.84
2023-04-09T03:21:07.584Z,102516.97
2023-04-09T03:23:35.078Z,102515.00
2023-04-09T03:26:02.090Z,102516.84
2023-04-09T03:28:28.570Z,102511.41
2023-04-09T03:30:54.939Z,102508.81
2023-04-09T03:33:21.381Z,102515.13
2023-04-09T03:35:47.829Z,102514.41
2023-04-09T03:38:14.551Z,102510.09
2023-04-09T03:40:42.619Z,102508.25
2023-04-09T03:43:08.991Z,102505.53
2023-04-09T03:45:35.425Z,102517.41
2023-04-09T03:48:01.880Z,102508.09
2023-04-09T03:50:28.308Z,102517.97
2023-04-09T03:52:54.778Z,102515.25
2023-04-09T03:55:21.179Z,102520.69
2023-04-09T03:57:47.499Z,102512.53
2023-04-09T04:00:13.955Z,102512.41
2023-04-09T04:02:40.455Z,102519.69
2023-04-09T04:05:07.294Z,102509.97
2023-04-09T04:07:33.701Z,102509.81
2023-04-09T04:10:00.214Z,102507.25
2023-04-09T04:12:26.615Z,102511.69
2023-04-09T04:14:53.007Z,102510.97
2023-04-09T04:17:19.434Z,102513.53
2023-04-09T04:19:45.962Z,102515.41
2023-04-09T04:22:12.295Z,102517.13
2023-04-09T04:24:38.680Z,102519.13
2023-04-09T04:27:05.148Z,102508.25
2023-04-09T04:29:31.609Z,102513.69
2023-04-09T04:31:58.112Z,102515.53
2023-04-09T04:34:24.638Z,102521.13
2023-04-09T04:36:51.007Z,102522.84
2023-04-09T04:39:17.372Z,102524.84
2023-04-09T04:41:43.780Z,102517.53
2023-04-09T04:44:10.260Z,102521.28
2023-04-09T04:46:36.675Z,102524.00
2023-04-09T04:49:03.117Z,102529.44
2023-04-09T04:51:31.430Z,102528.56
2023-04-09T04:53:57.832Z,102527.56
2023-04-09T04:56:24.200Z,102529.53
2023-04-09T04:58:50.847Z,102528.56
2023-04-09T05:01:17.478Z,102533.88
2023-04-09T05:03:44.011Z,102535.47
2023-04-09T05:06:10.779Z,102540.75
2023-04-09T05:08:37.438Z,102537.88
2023-04-09T05:11:03.802Z,102538.63
2023-04-09T05:13:30.236Z,102541.34
2023-04-09T05:15:56.594Z,102536.75
2023-04-09T05:18:22.979Z,102538.75
2023-04-09T05:20:49.452Z,102536.16
2023-04-09T05:23:15.851Z,102541.59
2023-04-09T05:25:42.304Z,102538.19
2023-04-09T05:28:11.233Z,102534.56
2023-04-09T05:30:37.653Z,102538.31
2023-04-09T05:33:04.192Z,102536.44
2023-04-09T05:35:30.926Z,102538.31
2023-04-09T05:37:57.421Z,102541.88
2023-04-09T05:40:23.918Z,102542.72
2023-04-09T05:42:50.480Z,102539.31
2023-04-09T05:45:16.977Z,102542.19
2023-04-09T05:47:43.350Z,102539.47
2023-04-09T05:50:09.896Z,102537.72
2023-04-09T05:52:36.222Z,102544.91
2023-04-09T05:55:02.561Z,102553.06
2023-04-09T05:57:30.541Z,102546.63
2023-04-09T05:59:57.194Z,102556.63
2023-04-09T06:02:24.969Z,102550.19
2023-04-09T06:04:51.598Z,102550.19
2023-04-09T06:07:18.083Z,102553.63
2023-04-09T06:09:45.027Z,102547.31
2023-04-09T06:12:11.398Z,102550.91
2023-04-09T06:14:37.739Z,102560.94
2023-04-09T06:17:04.133Z,102552.75
2023-04-09T06:19:30.921Z,102561.06
2023-04-09T06:21:57.357Z,102562.94
2023-04-09T06:24:24.008Z,102557.50
2023-04-09T06:26:50.412Z,102555.47
2023-04-09T06:29:19.801Z,102556.34
2023-04-09T06:31:47.080Z,102562.53
2023-04-09T06:34:13.482Z,102557.94
2023-04-09T06:36:40.561Z,102563.38
2023-04-09T06:39:07.437Z,102559.81
2023-04-09T06:41:33.819Z,102560.06
2023-04-09T06:44:00.650Z,102558.19
2023-04-09T06:46:27.663Z,102563.66
2023-04-09T06:48:54.233Z,102556.50
2023-04-09T06:51:20.945Z,102565.50
2023-04-09T06:53:48.394Z,102563.78
2023-04-09T06:56:14.923Z,102575.53
2023-04-09T06:58:41.377Z,102576.41
2023-04-09T07:01:07.841Z,102578.25
2023-04-09T07:03:34.382Z,102575.69
2023-04-09T07:06:00.995Z,102583.00
2023-04-09T07:08:28.604Z,102577.53
2023-04-09T07:10:55.042Z,102575.81
2023-04-09T07:13:21.423Z,102573.97
2023-04-09T07:15:47.856Z,102572.22
2023-04-09T07:18:14.272Z,102569.66
2023-04-09T07:20:40.791Z,102571.38
2023-04-09T07:23:07.247Z,102580.38
2023-04-09T07:25:34.048Z,102580.53
2023-04-09T07:28:00.424Z,102575.09
2023-04-09T07:30:27.461Z,102574.22
2023-04-09T07:32:54.202Z,102575.09
2023-04-09T07:35:20.954Z,102583.25
2023-04-09T07:37:47.366Z,102572.53
2023-04-09T07:40:14.226Z,102575.09
2023-04-09T07:42:40.717Z,102589.56
2023-04-09T07:45:07.419Z,102575.94
2023-04-09T07:47:33.905Z,102583.09
2023-04-09T07:50:00.652Z,102588.44
2023-04-09T07:52:27.133Z,102582.13
2023-04-09T07:54:53.628Z,102580.28
2023-04-09T07:57:20.084Z,102580.28
2023-04-09T07:59:46.751Z,102583.97
2023-04-09T08:02:15.304Z,102584.84
2023-04-09T08:04:42.208Z,102592.13
2023-04-09T08:07:09.016Z,102590.16
2023-04-09T08:09:35.452Z,102590.28
2023-04-09T08:12:01.934Z,102589.41
2023-04-09T08:14:28.316Z,102586.69
2023-04-09T08:16:54.897Z,102596.59
2023-04-09T08:19:21.393Z,102593.88
2023-04-09T08:21:49.534Z,102600.16
2023-04-09T08:24:16.199Z,102600.16
2023-04-09T08:26:43.083Z,102599.16
2023-04-09T08:29:10.990Z,102605.06
2023-04-09T08:31:37.624Z,102611.22
2023-04-09T08:34:06.781Z,102610.09
2023-04-09T08:36:35.473Z,102608.09
2023-04-09T08:39:03.405Z,102605.97
2023-04-09T08:41:30.581Z,102609.41
2023-04-09T08:43:58.801Z,102611.13
2023-04-09T08:46:26.562Z,102613.72
2023-04-09T08:48:53.618Z,102618.00
2023-04-09T08:51:21.799Z,102615.28
2023-04-09T08:53:50.511Z,102604.41
2023-04-09T08:56:17.003Z,102603.72
2023-04-09T08:58:44.743Z,102595.53
2023-04-09T09:01:24.957Z,102594.97
2023-04-09T09:03:57.652Z,102599.25
2023-04-09T09:06:25.022Z,102594.22
2023-04-09T09:09:00.759Z,102592.03
2023-04-09T09:11:27.800Z,102591.72
2023-04-09T09:13:58.022Z,102588.44
2023-04-09T09:16:24.600Z,102598.72
2023-04-09T09:18:52.556Z,102603.31
2023-04-09T09:21:19.758Z,102596.84
2023-04-09T09:23:48.302Z,102604.16
2023-04-09T09:26:16.506Z,102601.28
2023-04-09T09:28:43.370Z,102609.44
2023-04-09T09:31:12.443Z,102609.44
2023-04-09T09:33:39.332Z,102604.00
2023-04-09T09:36:05.905Z,102604.88
2023-04-09T09:38:32.329Z,102606.63
2023-04-09T09:41:01.869Z,102602.88
2023-04-09T09:43:40.022Z,102606.47
2023-04-09T09:46:07.094Z,102599.44
2023-04-09T09:48:33.481Z,102602.03
2023-04-09T09:51:01.403Z,102596.59
2023-04-09T09:53:28.704Z,102597.56
2023-04-09T09:55:57.238Z,102600.28
2023-04-09T09:58:27.092Z,102596.59
2023-04-09T10:00:53.512Z,102591.16
2023-04-09T10:03:21.267Z,102599.16
2023-04-09T10:05:48.875Z,102587.41
2023-04-09T10:08:16.050Z,102590.16
2023-04-09T10:10:43.142Z,102588.44
2023-04-09T10:13:13.933Z,102594.72
2023-04-09T10:15:43.176Z,102595.44
2023-04-09T10:18:09.820Z,102586.41
2023-04-09T10:20:41.780Z,102585.41
2023-04-09T10:23:11.575Z,102588.13
2023-04-09T10:25:37.963Z,102584.44
2023-04-09T10:28:14.571Z,102579.69
2023-04-09T10:30:40.999Z,102580.72
2023-04-09T10:33:17.117Z,102582.44
2023-04-09T10:35:46.628Z,102581.56
2023-04-09T10:38:14.435Z,102576.13
2023-04-09T10:40:53.402Z,102581.56
2023-04-09T10:43:23.537Z,102578.69
2023-04-09T10:45:54.435Z,102576.72
2023-04-09T10:48:22.007Z,102578.59
2023-04-09T10:50:50.322Z,102574.00
2023-04-09T10:53:24.022Z,102580.28
2023-04-09T10:55:51.173Z,102575.88
2023-04-09T10:58:17.687Z,102575.72
2023-04-09T11:00:45.161Z,102580.16
2023-04-09T11:03:32.721Z,102573.72
2023-04-09T11:06:03.561Z,102560.97
2023-04-09T11:08:31.442Z,102564.56
2023-04-09T11:10:59.439Z,102568.13
2023-04-09T11:13:25.877Z,102562.53
2023-04-09T11:15:52.387Z,102560.69
2023-04-09T11:18:25.899Z,102561.56
2023-04-09T11:21:00.351Z,102567.88
2023-04-09T11:23:27.128Z,102562.44
2023-04-09T11:25:54.144Z,102558.69
2023-04-09T11:28:20.689Z,102566.88
2023-04-09T11:30:47.145Z,102543.22
2023-04-09T11:33:14.041Z,102558.53
2023-04-09T11:35:40.735Z,102554.69
2023-04-09T11:38:07.910Z,102564.56
2023-04-09T11:40:34.404Z,102559.88
2023-04-09T11:43:01.395Z,102556.28
2023-04-09T11:45:28.856Z,102557.84
2023-04-09T11:47:55.497Z,102555.13
2023-04-09T11:50:22.279Z,102552.41
2023-04-09T11:52:49.186Z,102553.16
2023-04-09T11:55:28.876Z,102549.53
2023-04-09T11:58:00.925Z,102553.16
2023-04-09T12:00:27.986Z,102552.25
2023-04-09T12:03:05.191Z,102555.88
2023-04-09T12:05:33.328Z,102545.97
2023-04-09T12:08:01.215Z,102551.28
2023-04-09T12:10:37.499Z,102554.88
2023-04-09T12:13:03.968Z,102547.41
2023-04-09T12:15:34.387Z,102558.19
2023-04-09T12:18:01.114Z,102556.31
2023-04-09T12:20:31.779Z,102551.72
2023-04-09T12:23:00.194Z,102550.59
2023-04-09T12:25:27.248Z,102553.31
2023-04-09T12:27:54.290Z,102551.56
2023-04-09T12:30:21.083Z,102543.28
2023-04-09T12:32:47.639Z,102556.75
2023-04-09T12:35:14.345Z,102556.75
2023-04-09T12:37:41.132Z,102543.13
2023-04-09T12:40:07.734Z,102544.00
2023-04-09T12:42:34.063Z,102532.97
2023-04-09T12:45:01.179Z,102537.53
2023-04-09T12:47:28.041Z,102537.41
2023-04-09T12:49:54.661Z,102536.56
2023-04-09T12:52:22.549Z,102532.69
2023-04-09T12:54:49.102Z,102524.38
2023-04-09T12:57:15.562Z,102523.22
2023-04-09T12:59:41.926Z,102513.19
2023-04-09T13:02:08.523Z,102511.31
2023-04-09T13:04:35.157Z,102506.75
2023-04-09T13:07:01.792Z,102505.75
2023-04-09T13:09:28.138Z,102502.75
2023-04-09T13:11:54.497Z,102506.47
2023-04-09T13:14:21.015Z,102500.03
2023-04-09T13:16:48.024Z,102494.59
2023-04-09T13:19:14.435Z,102497.16
2023-04-09T13:21:40.748Z,102482.69
2023-04-09T13:24:07.130Z,102492.56
2023-04-09T13:26:33.518Z,102483.53
2023-04-09T13:29:00.209Z,102486.09
2023-04-09T13:31:28.388Z,102479.81
2023-04-09T13:33:54.969Z,102476.38
2023-04-09T13:36:21.395Z,102471.78
2023-04-09T13:38:48.942Z,102460.03
2023-04-09T13:41:15.528Z,102474.63
2023-04-09T13:43:41.949Z,102470.09
2023-04-09T13:46:08.319Z,102463.75
2023-04-09T13:48:34.672Z,102462.88
2023-04-09T13:51:01.048Z,102460.03
2023-04-09T13:53:27.539Z,102460.03
2023-04-09T13:55:53.921Z,102455.31
2023-04-09T13:58:22.545Z,102459.88
2023-04-09T14:00:49.075Z,102457.00
2023-04-09T14:03:16.423Z,102458.75
2023-04-09T14:05:43.011Z,102451.44
2023-04-09T14:08:09.455Z,102447.88
2023-04-09T14:10:36.074Z,102446.00
2023-04-09T14:13:06.707Z,102452.28
2023-04-09T14:15:34.907Z,102449.56
2023-04-09T14:18:01.370Z,102437.81
2023-04-09T14:20:27.995Z,102442.25
2023-04-09T14:22:54.515Z,102450.28
2023-04-09T14:25:20.946Z,102449.41
2023-04-09T14:27:47.281Z,102446.69
2023-04-09T14:30:14.038Z,102443.97
2023-04-09T14:32:40.768Z,102430.34
2023-04-09T14:35:07.285Z,102431.22
2023-04-09T14:37:33.651Z,102429.50
2023-04-09T14:40:00.154Z,102443.13
2023-04-09T14:42:26.469Z,102433.06
2023-04-09T14:44:52.799Z,102427.78
2023-04-09T14:47:19.295Z,102420.47
2023-04-09T14:49:45.860Z,102426.78
2023-04-09T14:52:12.262Z,102426.66
2023-04-09T14:54:38.609Z,102431.22
2023-04-09T14:57:04.951Z,102423.03
2023-04-09T14:59:31.404Z,102427.63
2023-04-09T15:01:57.918Z,102427.63
2023-04-09T15:04:24.525Z,102426.66
2023-04-09T15:06:51.392Z,102423.94
2023-04-09T15:09:17.840Z,102419.47
2023-04-09T15:11:44.232Z,102425.75
2023-04-09T15:14:10.696Z,102415.03
2023-04-09T15:16:37.640Z,102421.34
2023-04-09T15:19:04.142Z,102424.91
2023-04-09T15:21:31.598Z,102422.19
2023-04-09T15:23:59.064Z,102431.22
2023-04-09T15:26:27.073Z,102426.66
2023-04-09T15:29:01.239Z,102433.81
2023-04-09T15:31:27.993Z,102434.66
2023-04-09T15:33:54.569Z,102431.94
2023-04-09T15:36:21.010Z,102431.09
2023-04-09T15:38:47.427Z,102425.63
2023-04-09T15:41:13.911Z,102422.06
2023-04-09T15:43:40.311Z,102422.19
2023-04-09T15:46:07.366Z,102422.06
2023-04-09T15:48:33.794Z,102422.06
2023-04-09T15:51:00.216Z,102423.78
2023-04-09T15:53:29.080Z,102425.63
2023-04-09T15:55:55.887Z,102421.22
2023-04-09T15:58:22.351Z,102415.75
2023-04-09T16:00:51.354Z,102421.22
2023-04-09T16:03:19.042Z,102419.47
2023-04-09T16:05:46.785Z,102414.88
2023-04-09T16:08:13.198Z,102416.63
2023-04-09T16:10:39.644Z,102415.75
2023-04-09T16:13:06.438Z,102422.91
2023-04-09T16:15:32.945Z,102417.47
2023-04-09T16:17:59.430Z,102418.47
2023-04-09T16:20:26.136Z,102416.75
2023-04-09T16:22:52.540Z,102422.06
2023-04-09T16:25:18.966Z,102413.03
2023-04-09T16:27:45.338Z,102413.91
2023-04-09T16:30:11.908Z,102421.34
2023-04-09T16:32:38.410Z,102418.47
2023-04-09T16:35:05.062Z,102408.56
2023-04-09T16:37:31.475Z,102410.59
2023-04-09T16:39:58.157Z,102421.34
2023-04-09T16:42:26.771Z,102410.59
2023-04-09T16:44:54.285Z,102416.03
2023-04-09T16:47:20.887Z,102412.59
2023-04-09T16:49:47.434Z,102410.03
2023-04-09T16:52:13.803Z,102412.75
2023-04-09T16:54:40.287Z,102412.59
2023-04-09T16:57:06.609Z,102411.72
2023-04-09T16:59:32.945Z,102411.88
2023-04-09T17:01:59.450Z,102420.19
2023-04-09T17:04:27.196Z,102421.06
2023-04-09T17:06:53.803Z,102412.16
2023-04-09T17:09:20.301Z,102418.47
2023-04-09T17:11:46.670Z,102422.22
2023-04-09T17:14:13.131Z,102415.91
2023-04-09T17:16:39.583Z,102419.63
2023-04-09T17:19:06.435Z,102418.63
2023-04-09T17:21:32.883Z,102418.63
2023-04-09T17:23:59.711Z,102419.47
2023-04-09T17:26:26.211Z,102419.47
2023-04-09T17:28:52.808Z,102419.63
2023-04-09T17:31:19.476Z,102429.53
2023-04-09T17:33:49.100Z,102428.78
2023-04-09T17:36:19.670Z,102428.78
2023-04-09T17:38:47.283Z,102426.06
2023-04-09T17:41:14.115Z,102434.22
2023-04-09T17:43:40.684Z,102427.06
2023-04-09T17:46:09.765Z,102438.81
2023-04-09T17:48:37.003Z,102438.97
2023-04-09T17:51:03.706Z,102439.13
2023-04-09T17:53:30.139Z,102441.84
2023-04-09T17:55:56.568Z,102430.06
2023-04-09T17:58:24.382Z,102431.25
2023-04-09T18:00:52.883Z,102434.66
2023-04-09T18:03:19.690Z,102441.13
2023-04-09T18:05:46.543Z,102446.56
2023-04-09T18:08:13.435Z,102439.41
2023-04-09T18:10:39.919Z,102440.41
2023-04-09T18:13:06.393Z,102444.00
2023-04-09T18:15:32.932Z,102448.72
2023-04-09T18:17:59.899Z,102449.72
2023-04-09T18:20:26.573Z,102450.72
2023-04-09T18:22:53.001Z,102436.25
2023-04-09T18:25:19.729Z,102451.59
2023-04-09T18:27:46.119Z,102444.44
2023-04-09T18:30:12.595Z,102445.41
2023-04-09T18:32:39.670Z,102449.13
2023-04-09T18:35:06.344Z,102451.00
2023-04-09T18:37:34.121Z,102448.44
2023-04-09T18:40:02.376Z,102446.56
2023-04-09T18:42:29.354Z,102453.00
2023-04-09T18:44:56.356Z,102453.00
2023-04-09T18:47:22.810Z,102454.00
2023-04-09T18:49:49.525Z,102461.31
2023-04-09T18:52:16.149Z,102459.59
2023-04-09T18:54:42.839Z,102468.78
2023-04-09T18:57:09.265Z,102460.72
2023-04-09T18:59:35.793Z,102459.88
2023-04-09T19:02:06.076Z,102462.75
2023-04-09T19:04:36.462Z,102460.16
2023-04-09T19:07:02.955Z,102462.88
2023-04-09T19:09:29.351Z,102462.00
2023-04-09T19:11:57.098Z,102466.75
2023-04-09T19:14:24.274Z,102467.88
2023-04-09T19:16:50.802Z,102467.88
2023-04-09T19:19:17.476Z,102469.59
2023-04-09T19:21:43.831Z,102466.88
2023-04-09T19:24:10.324Z,102477.06
2023-04-09T19:26:36.675Z,102469.03
2023-04-09T19:29:05.646Z,102469.91
2023-04-09T19:31:32.195Z,102474.59
2023-04-09T19:33:58.711Z,102470.16
2023-04-09T19:36:25.699Z,102472.91
2023-04-09T19:38:52.400Z,102477.47
2023-04-09T19:41:18.870Z,102481.22
2023-04-09T19:43:48.236Z,102484.91
2023-04-09T19:46:14.627Z,102482.34
2023-04-09T19:48:41.302Z,102478.75
2023-04-09T19:51:07.654Z,102479.88
2023-04-09T19:53:36.276Z,102476.31
2023-04-09T19:56:03.157Z,102478.19
2023-04-09T19:58:29.634Z,102474.59
2023-04-09T20:00:56.113Z,102478.44
2023-04-09T20:03:22.961Z,102472.31
2023-04-09T20:05:49.592Z,102474.16
2023-04-09T20:08:16.660Z,102483.44
2023-04-09T20:10:46.308Z,102479.72
2023-04-09T20:13:12.915Z,102488.88
2023-04-09T20:15:39.279Z,102479.00
2023-04-09T20:18:06.469Z,102489.91
2023-04-09T20:20:33.013Z,102496.34
2023-04-09T20:22:59.602Z,102498.19
2023-04-09T20:25:26.160Z,102492.75
2023-04-09T20:27:52.825Z,102495.75
2023-04-09T20:30:19.315Z,102494.00
2023-04-09T20:32:45.737Z,102494.00
2023-04-09T20:35:13.590Z,102495.03
2023-04-09T20:37:40.076Z,102489.56
2023-04-09T20:40:06.864Z,102488.72
2023-04-09T20:42:33.268Z,102485.16
2023-04-09T20:45:01.805Z,102491.59
2023-04-09T20:47:28.490Z,102490.84
2023-04-09T20:49:59.557Z,102494.44
2023-04-09T20:52:28.475Z,102490.75
2023-04-09T20:54:55.447Z,102489.00
2023-04-09T21:11:20.570Z,102480.47
2023-04-09T21:13:54.608Z,102474.59
2023-04-09T21:16:21.727Z,102471.72
2023-04-09T21:18:48.869Z,102469.75
2023-04-09T21:21:15.543Z,102477.03
2023-04-09T21:23:41.963Z,102478.19
2023-04-09T21:26:09.028Z,102486.50
2023-04-09T21:28:35.466Z,102478.59
2023-04-09T21:31:01.893Z,102477.00
2023-04-09T21:33:29.977Z,102471.88
2023-04-09T21:35:57.144Z,102473.00
2023-04-09T21:38:23.538Z,102475.84
2023-04-09T21:40:49.969Z,102471.53
2023-04-09T21:43:16.617Z,102461.66
2023-04-09T21:45:43.069Z,102462.66
2023-04-09T21:48:09.470Z,102471.81
2023-04-09T21:50:36.037Z,102461.09
2023-04-09T21:53:03.268Z,102461.31
2023-04-09T21:55:29.807Z,102461.31
2023-04-09T21:57:56.292Z,102463.19
2023-04-09T22:00:22.840Z,102464.19
2023-04-09T22:02:49.212Z,102464.03
2023-04-09T22:05:15.725Z,102464.31
2023-04-09T22:07:42.544Z,102469.03
2023-04-09T22:10:09.135Z,102466.31
2023-04-09T22:12:37.315Z,102472.75
2023-04-09T22:15:04.634Z,102471.03
2023-04-09T22:17:31.336Z,102471.03
2023-04-09T22:19:58.512Z,102475.59
2023-04-09T22:22:24.883Z,102474.75
2023-04-09T22:24:51.458Z,102480.19
2023-04-09T22:27:17.791Z,102481.47
2023-04-09T22:29:44.211Z,102482.47
2023-04-09T22:32:10.614Z,102487.91
2023-04-09T22:34:37.125Z,102494.19
2023-04-09T22:37:03.525Z,102485.34
2023-04-09T22:39:29.910Z,102480.75
2023-04-09T22:41:56.347Z,102477.28
2023-04-09T22:44:22.753Z,102483.59
2023-04-09T22:46:49.245Z,102479.31
2023-04-09T22:49:15.932Z,102483.00
2023-04-09T22:51:42.707Z,102483.00
2023-04-09T22:54:09.278Z,102485.72
2023-04-09T22:56:36.711Z,102496.59
2023-04-09T22:59:03.280Z,102481.72
2023-04-09T23:01:29.675Z,102479.88
2023-04-09T23:03:56.305Z,102488.91
2023-04-09T23:06:24.404Z,102492.47
2023-04-09T23:08:50.958Z,102479.75
2023-04-09T23:11:17.359Z,102483.31
2023-04-09T23:13:43.785Z,102482.63
2023-04-09T23:16:10.530Z,102481.72
2023-04-09T23:18:37.414Z,102477.28
2023-04-09T23:21:05.434Z,102479.00
2023-04-09T23:23:31.771Z,102472.72
2023-04-09T23:25:58.147Z,102484.59
2023-04-09T23:28:24.558Z,102478.44
2023-04-09T23:30:51.146Z,102470.28
2023-04-09T23:33:17.544Z,102464.69
2023-04-09T23:35:43.895Z,102463.00
2023-04-09T23:38:10.351Z,102456.69
2023-04-09T23:40:36.678Z,102459.53
2023-04-09T23:43:03.092Z,102460.38
2023-04-09T23:45:29.562Z,102459.53
2023-04-09T23:47:56.540Z,102463.25
2023-04-09T23:50:23.201Z,102461.53
2023-04-09T23:52:49.932Z,102459.81
2023-04-09T23:55:16.396Z,102457.22
2023-04-09T23:57:43.513Z,102458.94
